Time;durP1;ratioP1;P1;durP2;ratioP2;P2;SDS_P1;SDS_P2;PMS_P1;PMS_P2;Temp;Humidity;BMP_temperature;BMP_pressure;BME280_temperature;BME280_humidity;BME280_pressure;Samples;Min_cycle;Max_cycle;Signal;HPM_P1;HPM_P2
2023/06/24 00:00:00;;;;;;;5.40;4.90;;;16.70;99.90;;;;;;5079349;28;20393;-85
2023/06/24 00:02:28;;;;;;;6.88;5.70;;;16.30;99.90;;;;;;5079333;28;20902;-85
2023/06/24 00:04:54;;;;;;;5.53;5.03;;;17.40;99.90;;;;;;5082826;28;20396;-85
2023/06/24 00:07:23;;;;;;;5.70;5.20;;;16.30;99.90;;;;;;5076652;28;20888;-86
2023/06/24 00:09:48;;;;;;;5.85;5.40;;;16.50;99.90;;;;;;5076676;28;20388;-85
2023/06/24 00:12:18;;;;;;;6.10;5.50;;;16.30;99.90;;;;;;5088569;28;20390;-85
2023/06/24 00:14:55;;;;;;;6.63;5.93;;;17.40;99.90;;;;;;5079117;28;20394;-85
2023/06/24 00:17:20;;;;;;;6.10;5.60;;;16.10;99.90;;;;;;5118095;22;20488;-79
2023/06/24 00:19:46;;;;;;;6.17;5.63;;;16.20;99.90;;;;;;5080009;28;20376;-78
2023/06/24 00:22:11;;;;;;;6.00;5.40;;;16.20;99.90;;;;;;5080105;28;20411;-77
2023/06/24 00:24:38;;;;;;;5.60;5.00;;;16.10;99.90;;;;;;5081128;28;20392;-77
2023/06/24 00:27:04;;;;;;;5.60;5.18;;;16.10;99.90;;;;;;5079462;28;20390;-77
2023/06/24 00:29:30;;;;;;;5.93;5.33;;;16.10;99.90;;;;;;5076299;28;20371;-79
2023/06/24 00:31:55;;;;;;;5.78;5.28;;;16.10;99.90;;;;;;5055725;28;20393;-79
2023/06/24 00:34:21;;;;;;;5.70;5.20;;;16.10;99.90;;;;;;5057233;28;20396;-77
2023/06/24 00:36:47;;;;;;;5.83;5.33;;;16.70;99.90;;;;;;5059860;28;20460;-77
2023/06/24 00:39:12;;;;;;;9.30;6.50;;;15.90;99.90;;;;;;5060356;28;20428;-77
2023/06/24 00:41:38;;;;;;;6.07;5.47;;;15.90;99.90;;;;;;5078522;28;20502;-79
2023/06/24 00:44:03;;;;;;;5.93;5.43;;;15.90;99.90;;;;;;5073112;28;20404;-78
2023/06/24 00:46:31;;;;;;;5.97;5.47;;;15.80;99.90;;;;;;5073758;28;20379;-79
2023/06/24 00:48:57;;;;;;;5.70;5.20;;;15.80;99.90;;;;;;5072956;28;20388;-79
2023/06/24 00:51:29;;;;;;;5.93;5.43;;;15.70;99.90;;;;;;5057919;28;20389;-79
2023/06/24 00:53:55;;;;;;;7.30;5.60;;;15.90;99.90;;;;;;5053192;28;20488;-79
2023/06/24 00:56:23;;;;;;;6.30;5.70;;;15.80;99.90;;;;;;5054255;28;20443;-79
2023/06/24 00:58:50;;;;;;;5.53;5.03;;;15.70;99.90;;;;;;5073629;28;20469;-79
2023/06/24 01:01:16;;;;;;;6.32;5.72;;;15.70;99.90;;;;;;5073210;28;20435;-79
2023/06/24 01:03:41;;;;;;;6.10;5.50;;;15.70;99.90;;;;;;5075173;28;20399;-79
2023/06/24 01:06:09;;;;;;;6.07;5.57;;;15.70;99.90;;;;;;5074677;28;20379;-79
2023/06/24 01:08:35;;;;;;;6.33;5.77;;;15.70;99.90;;;;;;5058873;28;20393;-79
2023/06/24 01:11:01;;;;;;;6.93;5.67;;;15.70;99.90;;;;;;5055442;28;20459;-79
2023/06/24 01:13:27;;;;;;;6.45;5.85;;;15.70;99.90;;;;;;5055149;28;20405;-79
2023/06/24 01:15:53;;;;;;;6.40;5.80;;;15.50;99.90;;;;;;5054133;28;20400;-79
2023/06/24 01:18:38;;;;;;;5.50;5.00;;;15.60;99.90;;;;;;5054204;28;20401;-80
2023/06/24 01:21:14;;;;;;;6.35;5.80;;;15.60;99.90;;;;;;5054819;28;20477;-80
2023/06/24 01:23:55;;;;;;;6.67;6.07;;;15.50;99.90;;;;;;5065961;28;20890;-80
2023/06/24 01:26:42;;;;;;;6.50;5.80;;;15.50;99.90;;;;;;5053930;28;20741;-80
2023/06/24 01:29:45;;;;;;;5.60;5.10;;;15.60;99.90;;;;;;5053157;28;20393;-79
2023/06/24 01:32:16;;;;;;;6.00;5.50;;;15.60;99.90;;;;;;5053028;28;20389;-80
2023/06/24 01:34:52;;;;;;;5.90;5.40;;;15.60;99.90;;;;;;5065562;28;20415;-79
2023/06/24 01:37:25;;;;;;;6.28;5.30;;;15.60;99.90;;;;;;5069490;28;20409;-79
2023/06/24 01:40:20;;;;;;;6.82;6.32;;;15.60;99.90;;;;;;5053724;28;20393;-82
2023/06/24 01:42:47;;;;;;;6.95;5.95;;;15.50;99.90;;;;;;5057759;28;20409;-78
2023/06/24 01:45:16;;;;;;;6.85;5.70;;;15.40;99.90;;;;;;5058142;28;20378;-78
2023/06/24 01:47:44;;;;;;;6.93;6.00;;;15.30;99.90;;;;;;5075290;28;20582;-77
2023/06/24 01:50:12;;;;;;;6.77;6.10;;;15.30;99.90;;;;;;5089824;28;20445;-77
2023/06/24 01:52:41;;;;;;;6.10;5.60;;;15.40;99.90;;;;;;5086023;28;20397;-77
2023/06/24 01:55:09;;;;;;;6.65;5.47;;;15.30;99.90;;;;;;5056007;28;20393;-79
2023/06/24 01:57:37;;;;;;;6.15;5.55;;;15.20;99.90;;;;;;5052308;28;20408;-79
2023/06/24 02:00:07;;;;;;;6.90;6.20;;;15.20;99.90;;;;;;5053407;28;20383;-80
2023/06/24 02:02:34;;;;;;;6.73;6.13;;;15.10;99.90;;;;;;5056592;28;20468;-80
2023/06/24 02:05:02;;;;;;;6.35;5.78;;;15.20;99.90;;;;;;5071755;28;20395;-78
2023/06/24 02:07:31;;;;;;;6.50;5.53;;;15.20;99.90;;;;;;5072944;28;20379;-79
2023/06/24 02:09:59;;;;;;;5.90;5.40;;;15.00;99.90;;;;;;5073983;28;20375;-79
2023/06/24 02:12:27;;;;;;;5.80;5.30;;;15.10;99.90;;;;;;5069412;28;20427;-79
2023/06/24 02:14:54;;;;;;;6.03;5.43;;;15.10;99.90;;;;;;5072639;28;20398;-78
2023/06/24 02:17:21;;;;;;;6.50;5.90;;;15.00;99.90;;;;;;5073465;28;20384;-80
2023/06/24 02:19:48;;;;;;;6.30;5.73;;;15.10;99.90;;;;;;5074518;28;20379;-79
2023/06/24 02:22:14;;;;;;;7.25;5.97;;;15.10;99.90;;;;;;5059761;28;20459;-79
2023/06/24 02:24:41;;;;;;;6.90;5.70;;;15.10;99.90;;;;;;5053083;28;20381;-80
2023/06/24 02:27:08;;;;;;;5.70;5.18;;;15.10;99.90;;;;;;5052908;28;20385;-79
2023/06/24 02:29:36;;;;;;;5.85;5.35;;;15.00;99.90;;;;;;5060102;28;20392;-79
2023/06/24 02:32:01;;;;;;;6.50;5.90;;;15.10;99.90;;;;;;5074866;28;20423;-79
2023/06/24 02:34:28;;;;;;;6.27;5.67;;;15.00;99.90;;;;;;5075146;28;20394;-79
2023/06/24 02:36:53;;;;;;;6.60;5.90;;;15.00;99.90;;;;;;5072995;28;20443;-79
2023/06/24 02:39:19;;;;;;;5.75;5.25;;;14.90;99.90;;;;;;5072128;28;20422;-80
2023/06/24 02:41:47;;;;;;;6.13;5.53;;;15.00;99.90;;;;;;5055099;28;20488;-78
2023/06/24 02:44:13;;;;;;;5.63;5.13;;;15.10;99.90;;;;;;5054926;28;20469;-80
2023/06/24 02:46:40;;;;;;;7.40;6.47;;;14.90;99.90;;;;;;5054396;28;20409;-80
2023/06/24 02:49:07;;;;;;;6.68;5.97;;;14.90;99.90;;;;;;5069476;28;20453;-78
2023/06/24 02:51:33;;;;;;;6.05;5.55;;;14.90;99.90;;;;;;5074741;28;21116;-80
2023/06/24 02:53:59;;;;;;;6.65;5.85;;;14.90;99.90;;;;;;5074348;28;20380;-79
2023/06/24 02:56:26;;;;;;;6.15;5.55;;;15.00;99.90;;;;;;5073960;28;20445;-79
2023/06/24 02:58:53;;;;;;;5.85;5.35;;;15.00;99.90;;;;;;5062525;28;20412;-79
2023/06/24 03:01:24;;;;;;;5.32;4.82;;;15.10;99.90;;;;;;5055381;28;20444;-79
2023/06/24 03:03:53;;;;;;;7.40;5.90;;;15.10;99.90;;;;;;5054653;28;20420;-80
2023/06/24 03:06:20;;;;;;;5.85;5.35;;;15.00;99.90;;;;;;5053856;28;20471;-80
2023/06/24 03:08:46;;;;;;;6.80;6.20;;;14.90;99.90;;;;;;5066728;28;20395;-80
2023/06/24 03:11:15;;;;;;;6.30;5.72;;;14.80;99.90;;;;;;5073396;28;20387;-79
2023/06/24 03:13:41;;;;;;;6.90;5.47;;;14.90;99.90;;;;;;5054693;28;20392;-78
2023/06/24 03:16:12;;;;;;;6.63;5.95;;;14.90;99.90;;;;;;5056224;28;20389;-80
2023/06/24 03:18:40;;;;;;;5.97;5.38;;;14.80;99.90;;;;;;5068465;28;20403;-79
2023/06/24 03:21:06;;;;;;;5.75;5.25;;;14.80;99.90;;;;;;5077835;28;20435;-79
2023/06/24 03:23:31;;;;;;;6.50;5.83;;;14.70;99.90;;;;;;5078632;28;20410;-80
2023/06/24 03:25:57;;;;;;;5.90;5.30;;;14.70;99.90;;;;;;5076819;28;20419;-79
2023/06/24 03:28:23;;;;;;;5.70;5.20;;;14.80;99.90;;;;;;5059180;28;20483;-78
2023/06/24 03:30:48;;;;;;;5.70;5.20;;;14.70;99.90;;;;;;5058984;28;20377;-78
2023/06/24 03:33:16;;;;;;;6.00;5.40;;;14.70;99.90;;;;;;5057550;28;20385;-80
2023/06/24 03:35:42;;;;;;;6.00;5.40;;;14.70;99.90;;;;;;5056584;28;20390;-79
2023/06/24 03:38:08;;;;;;;5.27;4.77;;;14.70;99.90;;;;;;5075348;28;20388;-79
2023/06/24 03:40:33;;;;;;;6.57;5.87;;;14.70;99.90;;;;;;5060232;28;20405;-79
2023/06/24 03:42:59;;;;;;;6.40;5.80;;;14.70;99.90;;;;;;5059803;28;20374;-78
2023/06/24 03:45:24;;;;;;;5.80;5.30;;;14.60;99.90;;;;;;5057606;28;20451;-79
2023/06/24 03:47:50;;;;;;;5.70;4.97;;;14.60;99.90;;;;;;5058126;28;20389;-79
2023/06/24 03:50:15;;;;;;;5.97;5.47;;;14.60;99.90;;;;;;5070928;28;20399;-78
2023/06/24 03:52:41;;;;;;;7.70;5.60;;;14.60;99.90;;;;;;5077272;28;20395;-79
2023/06/24 03:55:07;;;;;;;6.20;5.63;;;14.60;99.90;;;;;;5076411;28;20425;-79
2023/06/24 03:57:32;;;;;;;5.60;5.10;;;14.60;99.90;;;;;;5075004;28;20498;-80
2023/06/24 03:59:58;;;;;;;6.10;5.50;;;14.60;99.90;;;;;;5063131;28;20397;-79
2023/06/24 04:02:23;;;;;;;6.10;5.50;;;14.50;99.90;;;;;;5056598;28;20907;-80
2023/06/24 04:04:52;;;;;;;6.10;5.47;;;14.50;99.90;;;;;;5055360;28;20894;-80
2023/06/24 04:07:27;;;;;;;6.00;5.40;;;14.50;99.90;;;;;;5055651;28;20405;-80
2023/06/24 04:09:54;;;;;;;5.63;5.07;;;14.50;99.90;;;;;;5064899;28;20486;-80
2023/06/24 04:12:20;;;;;;;6.20;5.50;;;14.50;99.90;;;;;;5063610;28;20469;-79
2023/06/24 04:14:46;;;;;;;6.70;5.07;;;14.50;99.90;;;;;;5065698;28;20427;-80
2023/06/24 04:17:11;;;;;;;5.90;5.07;;;14.50;99.90;;;;;;5074218;28;20394;-80
2023/06/24 04:19:37;;;;;;;6.30;5.60;;;14.50;99.90;;;;;;5076546;28;20388;-80
2023/06/24 04:22:02;;;;;;;6.40;5.83;;;14.40;99.90;;;;;;5063360;28;20412;-80
2023/06/24 04:24:28;;;;;;;6.23;5.00;;;14.50;99.90;;;;;;5063475;28;20422;-80
2023/06/24 04:26:53;;;;;;;5.50;5.00;;;14.50;99.90;;;;;;5074854;28;20408;-80
2023/06/24 04:29:19;;;;;;;5.57;5.00;;;14.60;99.90;;;;;;5074327;28;20388;-80
2023/06/24 04:31:44;;;;;;;5.63;5.13;;;15.50;99.90;;;;;;5076362;28;20387;-79
2023/06/24 04:34:10;;;;;;;6.18;5.57;;;14.60;99.90;;;;;;5056969;28;20397;-79
2023/06/24 04:36:35;;;;;;;6.40;5.80;;;14.60;99.90;;;;;;5055701;28;20389;-80
2023/06/24 04:39:01;;;;;;;6.00;5.40;;;14.60;99.90;;;;;;5056442;28;20389;-79
2023/06/24 04:41:26;;;;;;;6.50;5.90;;;14.60;99.90;;;;;;5056487;28;20741;-80
2023/06/24 04:43:52;;;;;;;8.00;5.70;;;14.70;99.90;;;;;;5056577;28;20401;-80
2023/06/24 04:46:17;;;;;;;6.30;5.70;;;14.70;99.90;;;;;;5053781;28;20394;-80
2023/06/24 04:48:43;;;;;;;5.70;5.20;;;14.80;99.90;;;;;;5055968;28;20412;-80
2023/06/24 04:51:09;;;;;;;6.40;5.70;;;14.80;99.90;;;;;;5072894;28;20396;-80
2023/06/24 04:53:35;;;;;;;5.80;5.30;;;14.90;99.90;;;;;;5075896;28;20391;-80
2023/06/24 04:56:00;;;;;;;7.00;6.30;;;14.90;99.90;;;;;;5074187;28;20383;-80
2023/06/24 04:58:26;;;;;;;6.32;5.72;;;15.00;99.90;;;;;;5074947;28;20395;-80
2023/06/24 05:00:51;;;;;;;6.40;5.80;;;15.10;99.90;;;;;;5060246;28;20477;-79
2023/06/24 05:03:17;;;;;;;5.60;5.10;;;15.10;99.90;;;;;;5056270;28;20842;-80
2023/06/24 05:05:42;;;;;;;5.90;5.40;;;15.20;99.90;;;;;;5054765;28;20384;-80
2023/06/24 05:08:08;;;;;;;6.80;5.68;;;15.20;99.90;;;;;;5071442;28;20462;-80
2023/06/24 05:10:33;;;;;;;5.50;5.10;;;15.20;99.90;;;;;;5076391;28;20419;-79
2023/06/24 05:12:59;;;;;;;6.07;5.57;;;15.30;99.90;;;;;;5057980;28;20420;-80
2023/06/24 05:15:24;;;;;;;6.65;5.50;;;15.30;99.90;;;;;;5054783;28;20401;-80
2023/06/24 05:17:50;;;;;;;5.80;5.30;;;15.40;99.90;;;;;;5058188;28;20408;-80
2023/06/24 05:20:17;;;;;;;5.50;5.00;;;15.50;99.90;;;;;;5075410;28;20397;-80
2023/06/24 05:22:43;;;;;;;6.57;5.53;;;15.70;99.90;;;;;;5074828;28;20480;-80
2023/06/24 05:25:09;;;;;;;5.95;5.35;;;15.70;99.90;;;;;;5073916;28;20470;-80
2023/06/24 05:27:34;;;;;;;5.57;5.10;;;15.80;99.90;;;;;;5071515;28;20429;-79
2023/06/24 05:30:00;;;;;;;6.05;5.55;;;15.90;99.90;;;;;;5055181;28;20417;-80
2023/06/24 05:32:25;;;;;;;5.37;4.90;;;15.90;99.90;;;;;;5055274;28;20425;-80
2023/06/24 05:34:51;;;;;;;5.80;5.30;;;15.90;99.90;;;;;;5067337;28;20395;-80
2023/06/24 05:37:16;;;;;;;6.38;5.78;;;16.10;99.90;;;;;;5072808;28;20400;-80
2023/06/24 05:39:42;;;;;;;6.27;5.67;;;16.10;99.90;;;;;;5074765;28;20395;-80
2023/06/24 05:42:07;;;;;;;6.20;5.70;;;16.20;99.90;;;;;;5074974;28;20436;-80
2023/06/24 05:44:33;;;;;;;5.50;4.97;;;16.20;99.90;;;;;;5066271;28;20397;-80
2023/06/24 05:46:59;;;;;;;5.90;5.30;;;16.30;99.90;;;;;;5054544;28;20898;-80
2023/06/24 05:49:24;;;;;;;6.03;5.43;;;16.30;99.90;;;;;;5055692;28;20439;-79
2023/06/24 05:51:50;;;;;;;6.22;5.72;;;16.40;99.90;;;;;;5074681;28;20403;-80
2023/06/24 05:54:16;;;;;;;5.78;5.28;;;16.60;99.90;;;;;;5074856;28;20796;-80
2023/06/24 05:56:41;;;;;;;5.80;5.30;;;16.70;99.90;;;;;;5074848;28;20428;-79
2023/06/24 05:59:07;;;;;;;6.10;5.43;;;16.70;99.90;;;;;;5074499;28;20466;-80
2023/06/24 06:01:32;;;;;;;7.73;5.60;;;16.90;99.90;;;;;;5056640;28;20401;-80
2023/06/24 06:03:58;;;;;;;6.17;5.57;;;17.00;99.90;;;;;;5060172;28;20411;-80
2023/06/24 06:06:23;;;;;;;6.00;5.40;;;17.10;99.90;;;;;;5074591;28;20375;-79
2023/06/24 06:08:49;;;;;;;5.60;4.87;;;17.10;99.90;;;;;;5075471;28;20392;-80
2023/06/24 06:11:14;;;;;;;5.97;5.47;;;17.30;99.90;;;;;;5070921;28;20398;-80
2023/06/24 06:13:40;;;;;;;5.93;5.33;;;17.40;99.90;;;;;;5056882;28;20392;-80
2023/06/24 06:16:05;;;;;;;5.60;5.00;;;17.50;99.90;;;;;;5063206;28;20397;-79
2023/06/24 06:18:39;;;;;;;5.28;4.82;;;17.90;99.90;;;;;;5085903;22;20889;-85
2023/06/24 06:21:08;;;;;;;5.85;5.35;;;17.50;99.90;;;;;;5070381;28;20400;-84
2023/06/24 06:23:43;;;;;;;5.90;5.40;;;17.90;99.90;;;;;;5070069;28;20376;-84
2023/06/24 06:26:09;;;;;;;5.65;5.22;;;17.80;99.90;;;;;;5070345;28;20479;-85
2023/06/24 06:28:38;;;;;;;5.70;5.20;;;20.00;99.90;;;;;;5069658;28;20460;-85
2023/06/24 06:31:06;;;;;;;7.43;5.78;;;19.00;99.90;;;;;;5070478;28;20476;-84
2023/06/24 06:33:32;;;;;;;5.68;5.18;;;19.60;99.90;;;;;;5070373;28;20727;-85
2023/06/24 06:36:00;;;;;;;5.22;4.82;;;17.80;99.90;;;;;;5065612;28;20449;-85
2023/06/24 06:38:26;;;;;;;6.00;5.50;;;19.20;99.90;;;;;;5069644;28;20384;-84
2023/06/24 06:40:54;;;;;;;5.72;5.22;;;18.30;99.90;;;;;;5071615;28;20470;-85
2023/06/24 06:43:21;;;;;;;5.40;4.90;;;19.80;99.90;;;;;;5085268;28;20380;-85
2023/06/24 06:45:57;;;;;;;5.22;4.72;;;18.60;99.90;;;;;;5089630;28;20392;-85
2023/06/24 06:48:22;;;;;;;6.00;5.40;;;19.80;99.90;;;;;;5078578;28;20400;-84
2023/06/24 06:50:49;;;;;;;5.23;4.83;;;18.60;99.90;;;;;;5050846;28;20469;-84
2023/06/24 06:53:15;;;;;;;5.63;5.13;;;18.70;99.90;;;;;;5054462;28;20390;-85
2023/06/24 06:55:43;;;;;;;5.20;4.70;;;19.80;99.90;;;;;;5053776;28;20455;-84
2023/06/24 06:58:09;;;;;;;5.40;5.00;;;18.80;99.90;;;;;;5060605;28;20935;-84
2023/06/24 07:00:40;;;;;;;5.60;5.00;;;18.90;99.90;;;;;;5073732;28;20412;-85
2023/06/24 07:03:18;;;;;;;4.80;4.40;;;19.20;99.90;;;;;;5072708;28;20784;-84
2023/06/24 07:05:46;;;;;;;5.22;4.82;;;19.30;93.50;;;;;;5055124;28;20489;-85
2023/06/24 07:08:18;;;;;;;4.60;4.20;;;21.60;59.90;;;;;;5055442;28;20425;-85
2023/06/24 07:10:46;;;;;;;5.10;4.60;;;19.60;28.40;;;;;;5056782;28;20380;-84
2023/06/24 07:13:15;;;;;;;5.03;4.63;;;18.70;41.20;;;;;;5057065;28;20891;-84
2023/06/24 07:15:43;;;;;;;5.47;5.03;;;20.60;24.70;;;;;;5055662;28;20428;-84
2023/06/24 07:18:09;;;;;;;4.90;4.50;;;19.70;19.90;;;;;;5054668;28;20416;-84
2023/06/24 07:20:35;;;;;;;5.43;5.00;;;21.60;21.60;;;;;;5054675;28;20408;-84
2023/06/24 07:23:00;;;;;;;4.97;4.57;;;20.10;13.60;;;;;;5054116;28;20977;-85
2023/06/24 07:25:28;;;;;;;4.83;4.43;;;20.00;8.50;;;;;;5070419;28;20388;-85
2023/06/24 07:28:02;;;;;;;5.40;4.60;;;20.00;5.00;;;;;;5074215;28;20462;-85
2023/06/24 07:30:27;;;;;;;5.57;4.70;;;20.00;1.40;;;;;;5057950;28;20390;-85
2023/06/24 07:33:05;;;;;;;5.00;4.50;;;20.10;3.30;;;;;;5078582;28;20404;-87
2023/06/24 07:35:31;;;;;;;4.88;4.40;;;21.30;1.00;;;;;;5078821;28;20385;-85
2023/06/24 07:37:57;;;;;;;4.78;4.38;;;20.40;1.70;;;;;;5079376;28;20412;-86
2023/06/24 07:40:23;;;;;;;5.22;4.72;;;20.50;1.00;;;;;;5067451;28;20401;-84
2023/06/24 07:42:51;;;;;;;5.30;4.80;;;20.40;1.00;;;;;;5056409;28;20401;-86
2023/06/24 07:45:23;;;;;;;4.75;4.35;;;20.40;1.00;;;;;;5053678;28;20404;-85
2023/06/24 07:47:54;;;;;;;5.03;4.63;;;20.60;1.00;;;;;;5053887;28;20400;-86
2023/06/24 07:50:28;;;;;;;4.60;4.20;;;20.80;1.00;;;;;;5053415;28;20397;-86
2023/06/24 07:52:53;;;;;;;5.13;4.40;;;21.00;1.00;;;;;;5054456;28;20385;-85
2023/06/24 07:55:21;;;;;;;5.80;5.20;;;22.70;1.00;;;;;;5054216;28;20899;-85
2023/06/24 07:57:49;;;;;;;4.43;4.03;;;22.50;1.00;;;;;;5059987;28;20396;-85
2023/06/24 08:00:18;;;;;;;4.95;4.55;;;21.40;1.00;;;;;;5054349;28;20385;-85
2023/06/24 08:03:00;;;;;;;4.30;3.90;;;21.10;1.00;;;;;;5053856;28;20429;-84
2023/06/24 08:05:38;;;;;;;;;;;;;;;;;;;;;
2023/06/24 08:08:50;;;;;;;5.78;5.20;;;22.80;1.00;;;;;;5064289;28;20383;-86
2023/06/24 08:11:21;;;;;;;4.15;3.85;;;21.30;1.00;;;;;;4990171;28;20418;-86
2023/06/24 08:13:53;;;;;;;7.28;4.57;;;21.50;1.00;;;;;;5039806;28;20400;-85
2023/06/24 08:16:28;;;;;;;6.25;4.80;;;21.60;1.00;;;;;;5071629;28;20402;-84
2023/06/24 08:19:02;;;;;;;5.00;4.50;;;21.50;1.00;;;;;;5057305;28;20408;-86
2023/06/24 08:21:34;;;;;;;4.80;4.40;;;22.20;1.00;;;;;;5052453;28;20405;-85
2023/06/24 08:24:03;;;;;;;4.80;4.40;;;21.60;1.00;;;;;;5052056;28;20477;-86
2023/06/24 08:26:37;;;;;;;5.03;4.60;;;21.70;1.00;;;;;;5070803;28;20770;-85
2023/06/24 08:29:15;;;;;;;4.57;4.18;;;22.30;1.00;;;;;;5073447;28;20376;-85
2023/06/24 08:31:41;;;;;;;4.55;4.20;;;21.90;1.00;;;;;;5073270;28;20750;-85
2023/06/24 08:34:09;;;;;;;4.82;4.43;;;21.90;1.00;;;;;;5072059;28;20384;-84
2023/06/24 08:36:40;;;;;;;5.28;4.68;;;21.90;1.00;;;;;;5052842;28;20484;-85
2023/06/24 08:39:09;;;;;;;4.60;4.20;;;21.80;1.00;;;;;;5050643;28;20424;-85
2023/06/24 08:41:37;;;;;;;4.60;4.20;;;22.50;1.00;;;;;;5053477;28;20504;-85
2023/06/24 08:44:23;;;;;;;;;;;;;;;;;;;;;
2023/06/24 08:46:55;;;;;;;4.80;4.40;;;22.20;1.00;;;;;;5069502;28;20401;-86
2023/06/24 08:49:23;;;;;;;4.90;4.50;;;22.10;1.00;;;;;;5065414;28;20412;-85
2023/06/24 08:52:13;;;;;;;4.85;4.35;;;22.20;1.00;;;;;;5073156;28;20397;-86
2023/06/24 08:54:41;;;;;;;4.80;4.40;;;21.40;1.00;;;;;;5058159;28;20387;-87
2023/06/24 08:57:21;;;;;;;4.60;4.20;;;23.60;1.00;;;;;;5053372;28;20416;-85
2023/06/24 08:59:49;;;;;;;5.20;4.70;;;22.50;1.00;;;;;;5055388;28;20385;-85
2023/06/24 09:02:28;;;;;;;5.10;4.70;;;22.80;1.00;;;;;;5065272;28;20414;-86
2023/06/24 09:04:54;;;;;;;5.00;4.60;;;22.60;1.00;;;;;;5076699;28;20394;-85
2023/06/24 09:07:32;;;;;;;4.80;4.40;;;22.70;1.00;;;;;;5077647;28;20777;-85
2023/06/24 09:09:57;;;;;;;4.88;4.43;;;23.30;1.00;;;;;;5076007;28;20490;-85
2023/06/24 09:12:24;;;;;;;4.60;4.20;;;22.60;1.00;;;;;;5069553;28;20534;-84
2023/06/24 09:15:20;;;;;;;5.47;4.47;;;22.80;1.00;;;;;;5072396;28;20387;-85
2023/06/24 09:17:52;;;;;;;5.50;5.00;;;22.90;1.00;;;;;;5038036;28;20388;-85
2023/06/24 09:20:24;;;;;;;4.72;4.32;;;23.20;1.00;;;;;;5054183;28;20429;-85
2023/06/24 09:23:01;;;;;;;4.50;4.10;;;23.20;1.00;;;;;;5049787;28;20417;-85
2023/06/24 09:25:30;;;;;;;4.90;4.50;;;23.60;1.00;;;;;;5050940;28;20393;-86
2023/06/24 09:28:02;;;;;;;4.55;4.15;;;23.30;1.00;;;;;;5052829;28;20471;-84
2023/06/24 09:30:28;;;;;;;5.43;4.75;;;23.10;1.00;;;;;;5067823;28;20395;-86
2023/06/24 09:32:57;;;;;;;4.80;4.40;;;23.30;1.00;;;;;;5073055;28;20380;-84
2023/06/24 09:35:25;;;;;;;4.90;4.32;;;22.40;1.00;;;;;;5073385;28;20396;-84
2023/06/24 09:38:02;;;;;;;4.35;4.05;;;23.50;1.00;;;;;;5071928;28;20391;-84
2023/06/24 09:40:44;;;;;;;6.70;4.10;;;23.50;1.00;;;;;;5070353;28;20943;-84
2023/06/24 09:43:28;;;;;;;4.95;4.15;;;23.70;1.00;;;;;;5072494;28;20577;-85
2023/06/24 09:45:54;;;;;;;4.30;3.90;;;23.70;1.00;;;;;;5063623;28;20400;-85
2023/06/24 09:48:35;;;;;;;4.80;4.40;;;23.70;1.00;;;;;;5053448;28;20378;-85
2023/06/24 09:51:14;;;;;;;4.40;4.00;;;23.30;1.00;;;;;;5032719;28;20391;-86
2023/06/24 09:53:45;;;;;;;4.88;4.20;;;23.90;1.00;;;;;;5032302;28;20466;-85
2023/06/24 09:56:16;;;;;;;4.70;4.30;;;23.90;1.00;;;;;;5030914;28;20406;-85
2023/06/24 09:58:57;;;;;;;4.53;4.15;;;24.00;1.00;;;;;;5034281;28;20563;-85
2023/06/24 10:01:26;;;;;;;4.78;4.38;;;24.10;1.00;;;;;;5070803;28;20970;-84
2023/06/24 10:03:57;;;;;;;4.60;4.20;;;23.90;1.00;;;;;;5071438;28;20887;-85
2023/06/24 10:06:32;;;;;;;4.55;4.25;;;24.20;1.00;;;;;;5069793;28;20951;-85
2023/06/24 10:09:04;;;;;;;4.70;4.30;;;24.10;1.00;;;;;;5063087;28;20434;-84
2023/06/24 10:11:33;;;;;;;4.43;4.03;;;24.20;1.00;;;;;;5049854;28;20484;-85
2023/06/24 10:14:04;;;;;;;4.43;4.13;;;24.10;1.00;;;;;;5050466;28;20389;-84
2023/06/24 10:16:30;;;;;;;4.88;4.10;;;24.30;1.00;;;;;;5051028;28;20481;-85
2023/06/24 10:19:05;;;;;;;4.60;4.10;;;24.30;1.00;;;;;;5049889;28;20919;-84
2023/06/24 10:22:23;;;;;;;4.60;4.20;;;24.20;1.00;;;;;;5050150;28;20922;-86
2023/06/24 10:24:54;;;;;;;4.80;4.40;;;24.40;1.00;;;;;;5046424;28;20400;-85
2023/06/24 10:27:38;;;;;;;4.80;4.32;;;24.70;1.00;;;;;;5082938;28;20445;-85
2023/06/24 10:30:04;;;;;;;4.55;4.15;;;24.50;1.00;;;;;;5069303;28;20393;-84
2023/06/24 10:32:43;;;;;;;4.22;3.92;;;24.30;1.00;;;;;;5057981;28;20389;-86
2023/06/24 10:35:30;;;;;;;4.53;4.13;;;24.40;1.00;;;;;;5052289;28;20396;-85
2023/06/24 10:38:09;;;;;;;5.20;3.83;;;24.70;1.00;;;;;;5032346;28;20394;-85
2023/06/24 10:40:49;;;;;;;4.30;4.00;;;25.60;1.00;;;;;;5051767;28;20392;-84
2023/06/24 10:43:26;;;;;;;4.80;4.30;;;25.00;1.00;;;;;;5058076;28;20388;-84
2023/06/24 10:45:59;;;;;;;5.03;3.78;;;25.10;1.00;;;;;;5059352;28;20391;-85
2023/06/24 10:48:27;;;;;;;4.60;4.20;;;25.40;1.00;;;;;;5073804;28;20449;-86
2023/06/24 10:50:56;;;;;;;4.50;4.10;;;25.70;1.00;;;;;;5071306;28;20881;-85
2023/06/24 10:53:22;;;;;;;4.78;4.10;;;25.50;1.00;;;;;;5070183;28;20892;-84
2023/06/24 10:56:00;;;;;;;4.93;4.00;;;25.50;1.00;;;;;;5061605;28;20397;-85
2023/06/24 10:58:29;;;;;;;4.50;4.00;;;25.60;1.00;;;;;;5049872;28;20369;-85
2023/06/24 11:01:15;;;;;;;4.80;4.40;;;26.10;1.00;;;;;;5050783;28;20797;-85
2023/06/24 11:03:41;;;;;;;4.93;4.43;;;26.40;1.00;;;;;;5069303;28;20400;-84
2023/06/24 11:06:22;;;;;;;4.68;4.38;;;26.50;1.00;;;;;;5069331;28;21099;-85
2023/06/24 11:08:56;;;;;;;4.18;3.78;;;26.50;1.00;;;;;;5069567;28;20388;-84
2023/06/24 11:11:25;;;;;;;4.65;4.25;;;26.60;1.00;;;;;;5066073;28;20409;-84
2023/06/24 11:13:58;;;;;;;4.32;4.00;;;26.00;1.00;;;;;;5049502;28;20385;-85
2023/06/24 11:16:24;;;;;;;3.97;3.67;;;26.20;1.00;;;;;;5050486;28;20410;-85
2023/06/24 11:18:58;;;;;;;3.80;3.50;;;26.30;1.00;;;;;;5070355;28;20767;-85
2023/06/24 11:21:34;;;;;;;4.20;3.90;;;26.50;1.00;;;;;;5070025;28;20399;-84
2023/06/24 11:24:10;;;;;;;4.00;3.70;;;26.70;1.00;;;;;;5070935;28;20432;-85
2023/06/24 11:26:42;;;;;;;3.97;3.67;;;27.10;1.00;;;;;;5065776;28;20389;-85
2023/06/24 11:29:14;;;;;;;4.32;3.92;;;27.70;1.00;;;;;;5049514;28;21067;-85
2023/06/24 11:31:44;;;;;;;3.93;3.63;;;28.00;1.00;;;;;;5061416;28;20826;-85
2023/06/24 11:34:10;;;;;;;4.20;3.90;;;28.10;1.00;;;;;;5069764;28;21043;-84
2023/06/24 11:36:43;;;;;;;4.47;3.70;;;27.90;1.00;;;;;;5069146;28;20399;-86
2023/06/24 11:39:20;;;;;;;4.10;3.70;;;27.90;1.00;;;;;;5076054;28;20399;-85
2023/06/24 11:42:22;;;;;;;3.92;3.63;;;28.60;1.00;;;;;;5063256;28;20435;-85
2023/06/24 11:44:50;;;;;;;3.78;3.47;;;29.00;1.00;;;;;;5059113;28;20378;-86
2023/06/24 11:47:23;;;;;;;3.60;3.30;;;29.40;1.00;;;;;;5070509;28;20447;-86
2023/06/24 11:50:22;;;;;;;6.95;3.70;;;29.90;1.00;;;;;;5072496;28;20391;-86
2023/06/24 11:52:49;;;;;;;3.55;3.25;;;29.40;1.00;;;;;;5057474;28;20436;-85
2023/06/24 11:55:19;;;;;;;3.60;3.30;;;29.70;1.00;;;;;;5071518;28;20380;-86
2023/06/24 11:57:52;;;;;;;3.70;3.40;;;29.60;1.00;;;;;;5052058;28;20811;-85
2023/06/24 12:00:39;;;;;;;3.90;3.60;;;29.50;1.00;;;;;;5052647;28;20389;-86
2023/06/24 12:03:08;;;;;;;3.15;2.90;;;30.80;1.00;;;;;;5054046;28;20894;-85
2023/06/24 12:05:35;;;;;;;3.33;3.13;;;30.30;1.00;;;;;;5062586;28;20490;-86
2023/06/24 12:08:10;;;;;;;3.30;3.00;;;30.50;1.00;;;;;;5071988;28;20391;-86
2023/06/24 12:10:37;;;;;;;2.92;2.72;;;30.50;1.00;;;;;;5073528;28;20441;-86
2023/06/24 12:13:10;;;;;;;3.22;2.92;;;30.90;1.00;;;;;;5054439;28;20934;-85
2023/06/24 12:15:41;;;;;;;2.85;2.65;;;31.50;1.00;;;;;;5052635;28;20775;-86
2023/06/24 12:18:07;;;;;;;3.80;3.22;;;30.90;1.00;;;;;;5079151;22;20513;-82
2023/06/24 12:20:34;;;;;;;3.60;2.97;;;31.40;1.00;;;;;;5075003;28;20407;-82
2023/06/24 12:23:00;;;;;;;3.70;3.00;;;31.20;1.00;;;;;;5074054;28;20407;-82
2023/06/24 12:25:25;;;;;;;2.97;2.77;;;31.00;1.00;;;;;;5073789;28;20384;-82
2023/06/24 12:27:51;;;;;;;3.10;2.90;;;31.70;1.00;;;;;;5073447;28;20384;-82
2023/06/24 12:30:17;;;;;;;2.80;2.60;;;31.30;1.00;;;;;;5075407;28;20943;-82
2023/06/24 12:32:43;;;;;;;3.05;2.75;;;31.40;1.00;;;;;;5057159;28;20447;-81
2023/06/24 12:35:10;;;;;;;3.33;3.00;;;31.10;1.00;;;;;;5055403;28;20382;-81
2023/06/24 12:37:36;;;;;;;2.90;2.70;;;31.20;1.00;;;;;;5073247;28;20788;-82
2023/06/24 12:40:03;;;;;;;3.70;2.90;;;32.00;1.00;;;;;;5074970;28;20409;-82
2023/06/24 12:42:29;;;;;;;3.30;3.10;;;31.90;1.00;;;;;;5074887;28;20407;-82
2023/06/24 12:44:59;;;;;;;3.40;3.10;;;32.30;1.00;;;;;;5080317;28;20827;-80
2023/06/24 12:47:25;;;;;;;3.42;3.10;;;31.70;1.00;;;;;;5062878;28;20432;-79
2023/06/24 12:49:50;;;;;;;3.65;3.35;;;32.20;1.00;;;;;;5071250;28;20765;-78
2023/06/24 12:52:16;;;;;;;3.10;2.90;;;31.80;1.00;;;;;;5083631;28;20406;-80
2023/06/24 12:54:42;;;;;;;3.20;2.90;;;31.20;1.00;;;;;;5084768;28;20379;-78
2023/06/24 12:57:07;;;;;;;3.38;3.15;;;31.90;1.00;;;;;;5092778;28;20380;-78
2023/06/24 12:59:33;;;;;;;3.30;3.00;;;32.30;1.00;;;;;;5076407;28;20402;-78
2023/06/24 13:01:58;;;;;;;3.40;2.70;;;32.20;1.00;;;;;;5063987;28;20413;-80
2023/06/24 13:04:24;;;;;;;3.40;3.10;;;31.90;1.00;;;;;;5083428;28;20881;-79